Time;durP1;ratioP1;P1;durP2;ratioP2;P2;SDS_P1;SDS_P2;PMS_P1;PMS_P2;Temp;Humidity;BMP_temperature;BMP_pressure;BME280_temperature;BME280_humidity;BME280_pressure;Samples;Min_cycle;Max_cycle;Signal;HPM_P1;HPM_P2
2023/09/04 00:02:34;;;;;;;3.35;3.03;;;;;;;-145.48;100.00;64539.38;5978226;29;20048;-87
2023/09/04 00:05:35;;;;;;;5.78;3.47;;;;;;;-145.48;100.00;64539.38;5976222;29;20494;-88
2023/09/04 00:08:37;;;;;;;5.75;3.00;;;;;;;-145.48;100.00;64539.38;5978367;29;20652;-88
2023/09/04 00:11:39;;;;;;;3.50;3.20;;;;;;;-145.48;100.00;64539.38;5977028;29;20035;-87
2023/09/04 00:14:41;;;;;;;3.33;3.03;;;;;;;-145.48;100.00;64539.38;5972851;29;20050;-87
2023/09/04 00:17:43;;;;;;;4.10;3.15;;;;;;;-145.48;100.00;64539.38;5971411;29;20065;-88
2023/09/04 00:20:44;;;;;;;4.50;3.20;;;;;;;-145.48;100.00;64539.38;5977958;29;20478;-88
2023/09/04 00:23:46;;;;;;;3.85;3.20;;;;;;;-145.48;100.00;64539.38;5978241;29;20405;-88
2023/09/04 00:26:48;;;;;;;3.72;3.33;;;;;;;-145.48;100.00;64539.38;5986432;29;20160;-87
2023/09/04 00:29:50;;;;;;;4.00;2.97;;;;;;;-145.48;100.00;64539.38;5965108;29;20047;-87
2023/09/04 00:32:52;;;;;;;5.72;3.75;;;;;;;-145.48;100.00;64539.38;5966733;29;20133;-87
2023/09/04 00:35:54;;;;;;;4.13;3.05;;;;;;;-145.48;100.00;64539.38;5961956;29;20070;-87
2023/09/04 00:38:56;;;;;;;4.25;3.50;;;;;;;-145.48;100.00;64539.38;5981047;29;20054;-88
2023/09/04 00:41:58;;;;;;;3.45;3.15;;;;;;;-145.48;100.00;64539.38;5977492;29;20091;-87
2023/09/04 00:45:00;;;;;;;3.05;2.75;;;;;;;-145.48;100.00;64539.38;5977809;29;20057;-87
2023/09/04 00:48:03;;;;;;;4.32;2.95;;;;;;;-145.48;100.00;64539.38;5967424;29;20054;-87
2023/09/04 00:51:06;;;;;;;4.07;3.15;;;;;;;-145.48;100.00;64539.38;5975384;29;20062;-87
2023/09/04 00:54:08;;;;;;;5.32;3.20;;;;;;;-145.48;100.00;64539.38;5976771;29;20062;-87
2023/09/04 00:57:12;;;;;;;4.80;3.15;;;;;;;-145.48;100.00;64539.38;5974826;29;20518;-87
2023/09/04 01:00:14;;;;;;;3.08;2.70;;;;;;;-145.48;100.00;64539.38;5976850;29;20047;-87
2023/09/04 01:03:18;;;;;;;4.15;2.95;;;;;;;-145.48;100.00;64539.38;5976603;29;20634;-87
2023/09/04 01:06:20;;;;;;;3.80;3.47;;;;;;;-145.48;100.00;64539.38;5966372;29;20055;-87
2023/09/04 01:09:22;;;;;;;4.65;2.88;;;;;;;-145.48;100.00;64539.38;5973263;29;20824;-87
2023/09/04 01:12:34;;;;;;;3.08;2.58;;;;;;;-145.48;100.00;64539.38;5979441;29;20153;-87
2023/09/04 01:15:36;;;;;;;4.03;3.63;;;;;;;-145.48;100.00;64539.38;5981007;29;20094;-87
2023/09/04 01:18:38;;;;;;;3.58;3.28;;;;;;;-145.48;100.00;64539.38;5974901;29;20114;-87
2023/09/04 01:21:40;;;;;;;4.97;3.33;;;;;;;-145.48;100.00;64539.38;5981107;29;20062;-87
2023/09/04 01:24:43;;;;;;;4.38;3.13;;;;;;;-145.48;100.00;64539.38;5981146;29;20050;-87
2023/09/04 01:27:55;;;;;;;3.50;3.13;;;;;;;-145.48;100.00;64539.38;5979626;29;20057;-87
2023/09/04 01:31:03;;;;;;;3.30;3.00;;;;;;;-145.48;100.00;64539.38;5965576;29;20138;-87
2023/09/04 01:34:18;;;;;;;4.03;3.17;;;;;;;-145.48;100.00;64539.38;5971200;29;20062;-86
2023/09/04 01:37:21;;;;;;;5.13;3.40;;;;;;;-145.48;100.00;64539.38;5995225;29;20543;-86
2023/09/04 01:40:23;;;;;;;3.47;3.17;;;;;;;-145.48;100.00;64539.38;5971264;29;20054;-86
2023/09/04 01:43:25;;;;;;;3.78;3.38;;;;;;;-145.48;100.00;64539.38;5972958;29;20414;-86
2023/09/04 01:46:27;;;;;;;4.13;3.33;;;;;;;-145.48;100.00;64539.38;5991831;29;20162;-86
2023/09/04 01:49:29;;;;;;;3.63;3.33;;;;;;;-145.48;100.00;64539.38;5974065;29;20046;-86
2023/09/04 01:52:30;;;;;;;4.20;3.08;;;;;;;-145.48;100.00;64539.38;5981006;29;20046;-86
2023/09/04 01:55:32;;;;;;;3.40;2.92;;;;;;;-145.48;100.00;64539.38;5978028;29;20409;-86
2023/09/04 01:58:34;;;;;;;5.03;3.55;;;;;;;-145.48;100.00;64539.38;5975617;29;20059;-86
2023/09/04 02:01:36;;;;;;;4.30;3.10;;;;;;;-145.48;100.00;64539.38;5971479;29;20055;-86
2023/09/04 02:04:38;;;;;;;3.92;3.53;;;;;;;-145.48;100.00;64539.38;5987684;29;20043;-86
2023/09/04 02:07:40;;;;;;;3.55;3.25;;;;;;;-145.48;100.00;64539.38;5965214;29;20057;-86
2023/09/04 02:10:42;;;;;;;4.05;3.55;;;;;;;-145.48;100.00;64539.38;5977341;29;20050;-86
2023/09/04 02:13:49;;;;;;;6.63;3.70;;;;;;;-145.48;100.00;64539.38;5980471;29;20047;-86
2023/09/04 02:16:51;;;;;;;4.68;3.67;;;;;;;-145.48;100.00;64539.38;5979689;29;20054;-86
2023/09/04 02:19:53;;;;;;;6.85;3.90;;;;;;;-145.48;100.00;64539.38;5979457;29;20367;-86
2023/09/04 02:22:55;;;;;;;3.90;3.60;;;;;;;-145.48;100.00;64539.38;5979449;29;20493;-86
2023/09/04 02:25:57;;;;;;;5.47;4.13;;;;;;;-145.48;100.00;64539.38;5968199;29;20050;-86
2023/09/04 02:28:59;;;;;;;4.95;3.38;;;;;;;-145.48;100.00;64539.38;5981073;29;20046;-86
2023/09/04 02:32:01;;;;;;;5.10;3.67;;;;;;;-145.48;100.00;64539.38;5970144;29;20513;-86
2023/09/04 02:35:03;;;;;;;5.57;3.38;;;;;;;-145.48;100.00;64539.38;5966007;29;20042;-86
2023/09/04 02:38:05;;;;;;;3.90;3.35;;;;;;;-145.48;100.00;64539.38;5978943;29;20477;-86
2023/09/04 02:41:07;;;;;;;4.68;3.78;;;;;;;-145.48;100.00;64539.38;5987751;29;20042;-86
2023/09/04 02:44:09;;;;;;;6.80;4.28;;;;;;;-145.48;100.00;64539.38;5980969;29;20139;-86
2023/09/04 02:47:11;;;;;;;4.72;3.33;;;;;;;-145.48;100.00;64539.38;5978124;29;20070;-86
2023/09/04 02:50:12;;;;;;;5.43;3.78;;;;;;;-145.48;100.00;64539.38;5980239;29;20046;-86
2023/09/04 02:53:14;;;;;;;4.25;3.50;;;;;;;-145.48;100.00;64539.38;5974639;29;20497;-86
2023/09/04 02:56:16;;;;;;;5.75;3.22;;;;;;;-145.48;100.00;64539.38;5975097;29;20103;-86
2023/09/04 02:59:18;;;;;;;5.20;3.67;;;;;;;-145.48;100.00;64539.38;5979803;29;20038;-86
2023/09/04 03:02:21;;;;;;;4.97;3.28;;;;;;;-145.48;100.00;64539.38;5979404;29;20050;-86
2023/09/04 03:05:25;;;;;;;4.70;3.38;;;;;;;-145.48;100.00;64539.38;5979533;29;20905;-86
2023/09/04 03:08:27;;;;;;;4.15;3.10;;;;;;;-145.48;100.00;64539.38;5976829;29;20046;-86
2023/09/04 03:11:29;;;;;;;3.92;3.53;;;;;;;-145.48;100.00;64539.38;5963174;29;20423;-86
2023/09/04 03:14:31;;;;;;;3.83;2.80;;;;;;;-145.48;100.00;64539.38;5978807;29;20840;-86
2023/09/04 03:17:34;;;;;;;2.90;2.58;;;;;;;-145.48;100.00;64539.38;5976193;29;20555;-86
2023/09/04 03:20:36;;;;;;;3.80;3.20;;;;;;;-145.48;100.00;64539.38;5975622;29;20050;-86
2023/09/04 03:23:38;;;;;;;6.10;2.80;;;;;;;-145.48;100.00;64539.38;5961598;29;20046;-86
2023/09/04 03:26:41;;;;;;;3.95;3.20;;;;;;;-145.48;100.00;64539.38;5981890;29;20047;-86
2023/09/04 03:29:45;;;;;;;3.25;2.55;;;;;;;-145.48;100.00;64539.38;5977861;29;20062;-86
2023/09/04 03:32:49;;;;;;;4.28;3.05;;;;;;;-145.48;100.00;64539.38;5962028;29;20054;-86
2023/09/04 03:35:51;;;;;;;3.22;2.92;;;;;;;-145.48;100.00;64539.38;5975831;29;20046;-86
2023/09/04 03:38:53;;;;;;;4.43;2.90;;;;;;;-145.48;100.00;64539.38;5977668;29;20161;-86
2023/09/04 03:41:55;;;;;;;2.88;2.53;;;;;;;-145.48;100.00;64539.38;5992421;29;20054;-86
2023/09/04 03:44:56;;;;;;;3.30;2.95;;;;;;;-145.48;100.00;64539.38;5979133;29;20050;-86
2023/09/04 03:47:58;;;;;;;4.03;3.63;;;;;;;-145.48;100.00;64539.38;5978475;29;20053;-86
2023/09/04 03:51:01;;;;;;;3.88;3.40;;;;;;;-145.48;100.00;64539.38;5962184;29;20053;-86
2023/09/04 03:54:03;;;;;;;4.05;3.63;;;;;;;-145.48;100.00;64539.38;5979563;29;20046;-86
2023/09/04 03:57:05;;;;;;;4.03;3.60;;;;;;;-145.48;100.00;64539.38;5980517;29;20157;-86
2023/09/04 04:00:19;;;;;;;4.40;3.53;;;;;;;-145.48;100.00;64539.38;5978315;29;20050;-86
2023/09/04 04:03:21;;;;;;;4.75;3.90;;;;;;;-145.48;100.00;64539.38;5959944;29;20062;-86
2023/09/04 04:06:25;;;;;;;5.38;4.10;;;;;;;-145.48;100.00;64539.38;5964026;29;20492;-86
2023/09/04 04:09:27;;;;;;;4.95;4.05;;;;;;;-145.48;100.00;64539.38;5978237;29;20058;-86
2023/09/04 04:12:31;;;;;;;5.07;3.80;;;;;;;-145.48;100.00;64539.38;5972027;29;20083;-86
2023/09/04 04:15:33;;;;;;;4.50;4.07;;;;;;;-145.48;100.00;64539.38;5959924;29;20070;-86
2023/09/04 04:18:35;;;;;;;8.52;4.18;;;;;;;-145.48;100.00;64539.38;5975641;29;20062;-86
2023/09/04 04:21:36;;;;;;;4.28;3.30;;;;;;;-145.48;100.00;64539.38;5980227;29;20042;-86
2023/09/04 04:24:38;;;;;;;5.10;3.42;;;;;;;-145.48;100.00;64539.38;5978366;29;20099;-86
2023/09/04 04:27:42;;;;;;;4.10;3.53;;;;;;;-145.48;100.00;64539.38;5986930;29;20054;-86
2023/09/04 04:30:43;;;;;;;4.13;3.38;;;;;;;-145.48;100.00;64539.38;5978627;29;20419;-86
2023/09/04 04:33:45;;;;;;;4.05;3.53;;;;;;;-145.48;100.00;64539.38;5981562;29;20125;-86
2023/09/04 04:36:54;;;;;;;5.93;4.00;;;;;;;-145.48;100.00;64539.38;5967507;29;20394;-86
2023/09/04 04:39:56;;;;;;;5.88;3.80;;;;;;;-145.48;100.00;64539.38;5984158;29;20466;-86
2023/09/04 04:42:59;;;;;;;5.13;3.53;;;;;;;-145.48;100.00;64539.38;5984527;29;20481;-86
2023/09/04 04:46:01;;;;;;;5.35;3.47;;;;;;;-145.48;100.00;64539.38;5981811;29;20497;-86
2023/09/04 04:49:03;;;;;;;5.38;3.55;;;;;;;-145.48;100.00;64539.38;5973186;29;20042;-86
2023/09/04 04:52:05;;;;;;;4.97;4.13;;;;;;;-145.48;100.00;64539.38;5984863;29;20042;-86
2023/09/04 04:55:11;;;;;;;4.53;3.80;;;;;;;-145.48;100.00;64539.38;5971244;29;20533;-86
2023/09/04 04:58:13;;;;;;;4.88;3.55;;;;;;;-145.48;100.00;64539.38;5982702;29;20058;-86
2023/09/04 05:01:15;;;;;;;6.45;4.05;;;;;;;-145.48;100.00;64539.38;5978532;29;20082;-86
2023/09/04 05:04:17;;;;;;;5.57;4.40;;;;;;;-145.48;100.00;64539.38;5962408;29;20058;-86
2023/09/04 05:07:19;;;;;;;10.25;5.38;;;;;;;-145.48;100.00;64539.38;5971705;29;20628;-86
2023/09/04 05:10:21;;;;;;;5.72;4.53;;;;;;;-145.48;100.00;64539.38;5974749;29;20061;-86
2023/09/04 05:13:23;;;;;;;8.20;4.28;;;;;;;-145.48;100.00;64539.38;5979652;29;20065;-86
2023/09/04 05:16:27;;;;;;;4.93;4.38;;;;;;;-145.48;100.00;64539.38;5975072;29;20043;-86
2023/09/04 05:19:29;;;;;;;6.65;4.18;;;;;;;-145.48;100.00;64539.38;5974812;29;20047;-86
2023/09/04 05:22:32;;;;;;;4.60;3.90;;;;;;;-145.48;100.00;64539.38;5974355;29;20166;-86
2023/09/04 05:25:34;;;;;;;4.78;4.10;;;;;;;-145.48;100.00;64539.38;5977855;29;20042;-86
2023/09/04 05:28:36;;;;;;;5.50;4.03;;;;;;;-145.48;100.00;64539.38;5971320;29;20517;-86
2023/09/04 05:31:38;;;;;;;4.60;4.10;;;;;;;-145.48;100.00;64539.38;5974848;29;20058;-86
2023/09/04 05:34:40;;;;;;;5.65;4.63;;;;;;;-145.48;100.00;64539.38;5978294;29;20086;-86
2023/09/04 05:37:42;;;;;;;5.07;4.57;;;;;;;-145.48;100.00;64539.38;5974986;29;20054;-86
2023/09/04 05:40:43;;;;;;;4.60;4.10;;;;;;;-145.48;100.00;64539.38;5975320;29;20506;-86
2023/09/04 05:43:45;;;;;;;4.63;4.18;;;;;;;-145.48;100.00;64539.38;5962875;29;20043;-86
2023/09/04 05:46:47;;;;;;;4.55;4.15;;;;;;;-145.48;100.00;64539.38;5975348;29;20466;-86
2023/09/04 05:49:49;;;;;;;6.85;4.53;;;;;;;-145.48;100.00;64539.38;5965066;29;20049;-86
2023/09/04 05:52:53;;;;;;;6.30;4.28;;;;;;;-145.48;100.00;64539.38;5980666;29;20505;-86
2023/09/04 05:56:06;;;;;;;5.18;4.68;;;;;;;-145.48;100.00;64539.38;5967804;29;20082;-86
2023/09/04 05:59:08;;;;;;;4.60;4.20;;;;;;;-145.48;100.00;64539.38;5973629;29;20058;-86
2023/09/04 06:02:10;;;;;;;5.63;3.85;;;;;;;-145.48;100.00;64539.38;5966682;29;20210;-86
2023/09/04 06:05:12;;;;;;;6.10;4.43;;;;;;;-145.48;100.00;64539.38;5971328;29;20077;-86
2023/09/04 06:08:15;;;;;;;4.28;3.88;;;;;;;-145.48;100.00;64539.38;5978266;29;20458;-86
2023/09/04 06:11:17;;;;;;;4.57;4.18;;;;;;;-145.48;100.00;64539.38;5966959;29;20047;-86
2023/09/04 06:14:19;;;;;;;5.18;4.68;;;;;;;-145.48;100.00;64539.38;5979203;29;20058;-86
2023/09/04 06:17:20;;;;;;;4.35;3.88;;;;;;;-145.48;100.00;64539.38;5979212;29;20058;-86
2023/09/04 06:20:22;;;;;;;4.75;4.28;;;;;;;-145.48;100.00;64539.38;5979106;29;20050;-86
2023/09/04 06:23:25;;;;;;;4.80;4.28;;;;;;;-145.48;100.00;64539.38;5970624;29;20053;-86
2023/09/04 06:26:27;;;;;;;6.85;5.18;;;;;;;-145.48;100.00;64539.38;5969575;29;20058;-86
2023/09/04 06:29:29;;;;;;;6.53;4.88;;;;;;;-145.48;100.00;64539.38;5985441;29;20516;-86
2023/09/04 06:32:31;;;;;;;7.10;4.63;;;;;;;-145.48;100.00;64539.38;5976745;29;20054;-86
2023/09/04 06:35:33;;;;;;;5.35;4.80;;;;;;;-145.48;100.00;64539.38;5978708;29;20790;-86
2023/09/04 06:38:35;;;;;;;7.97;4.35;;;;;;;-145.48;100.00;64539.38;5975639;29;20055;-86
2023/09/04 06:41:36;;;;;;;5.95;4.30;;;;;;;-145.48;100.00;64539.38;5979551;29;20058;-86
2023/09/04 06:44:38;;;;;;;7.35;4.25;;;;;;;-145.48;100.00;64539.38;5974684;29;20053;-86
2023/09/04 06:47:41;;;;;;;5.22;4.78;;;;;;;-145.48;100.00;64539.38;5971061;29;20056;-86
2023/09/04 06:50:42;;;;;;;6.13;4.80;;;;;;;-145.48;100.00;64539.38;5978320;29;20056;-86
2023/09/04 06:53:44;;;;;;;5.88;5.30;;;;;;;-145.48;100.00;64539.38;5980156;29;20429;-86
2023/09/04 06:56:46;;;;;;;5.35;4.53;;;;;;;-145.48;100.00;64539.38;5968039;29;20081;-85
2023/09/04 06:59:48;;;;;;;4.47;4.07;;;;;;;-145.48;100.00;64539.38;5978273;29;20062;-86
2023/09/04 07:02:50;;;;;;;6.35;5.00;;;;;;;-145.48;100.00;64539.38;5971206;29;20043;-86
2023/09/04 07:05:52;;;;;;;5.30;4.63;;;;;;;-145.48;100.00;64539.38;5977240;29;20054;-86
2023/09/04 07:08:54;;;;;;;4.50;4.10;;;;;;;-145.48;100.00;64539.38;5969533;29;20432;-90
2023/09/04 07:11:57;;;;;;;4.93;4.43;;;;;;;-145.48;100.00;64539.38;5977119;29;20340;-93
2023/09/04 07:14:59;;;;;;;4.30;3.90;;;;;;;-145.48;100.00;64539.38;5978537;29;20038;-93
2023/09/04 07:18:02;;;;;;;5.30;4.07;;;;;;;-145.48;100.00;64539.38;5962727;29;20156;-90
2023/09/04 07:21:04;;;;;;;6.40;4.22;;;;;;;-145.48;100.00;64539.38;5977365;29;20104;-89
2023/09/04 07:24:06;;;;;;;7.68;4.50;;;;;;;-145.48;100.00;64539.38;5977242;29;20137;-90
2023/09/04 07:27:08;;;;;;;5.00;4.50;;;;;;;-145.48;100.00;64539.38;5975055;29;20054;-89
2023/09/04 07:30:11;;;;;;;5.97;4.20;;;;;;;-145.48;100.00;64539.38;5962322;29;20075;-88
2023/09/04 07:33:14;;;;;;;5.03;4.50;;;;;;;-145.48;100.00;64539.38;5966866;29;20054;-87
2023/09/04 07:36:17;;;;;;;4.75;3.95;;;;;;;-145.48;100.00;64539.38;5976642;29;20576;-86
2023/09/04 07:39:19;;;;;;;5.80;4.60;;;;;;;-145.48;100.00;64539.38;5953512;29;20054;-86
2023/09/04 07:42:22;;;;;;;4.20;3.80;;;;;;;-145.48;100.00;64539.38;5977108;29;20083;-86
2023/09/04 07:45:24;;;;;;;4.03;3.63;;;;;;;-145.48;100.00;64539.38;5971396;29;20054;-86
2023/09/04 07:48:26;;;;;;;5.28;3.92;;;;;;;-145.48;100.00;64539.38;5977623;29;20056;-86
2023/09/04 07:51:28;;;;;;;6.30;3.80;;;;;;;-145.48;100.00;64539.38;5974156;29;20414;-86
2023/09/04 07:54:36;;;;;;;6.82;4.20;;;;;;;-145.48;100.00;64539.38;5963086;29;20091;-86
2023/09/04 07:57:38;;;;;;;4.93;4.00;;;;;;;-145.48;100.00;64539.38;5970037;29;20042;-86
2023/09/04 08:00:50;;;;;;;5.35;4.38;;;;;;;-145.48;100.00;64539.38;5965363;29;20065;-86
2023/09/04 08:03:52;;;;;;;4.57;3.85;;;;;;;-145.48;100.00;64539.38;5959711;29;20342;-86
2023/09/04 08:06:56;;;;;;;5.65;3.95;;;;;;;-145.48;100.00;64539.38;5974207;29;20057;-86
2023/09/04 08:09:58;;;;;;;4.40;4.00;;;;;;;-145.48;100.00;64539.38;5977505;29;20039;-86
2023/09/04 08:13:00;;;;;;;4.72;3.90;;;;;;;-145.48;100.00;64539.38;5975063;29;20049;-86
2023/09/04 08:16:02;;;;;;;5.93;4.05;;;;;;;-145.48;100.00;64539.38;5975073;29;20402;-85
2023/09/04 08:19:04;;;;;;;4.95;4.18;;;;;;;-145.48;100.00;64539.38;5975663;29;20137;-86
2023/09/04 08:22:09;;;;;;;4.05;3.30;;;;;;;-145.48;100.00;64539.38;5975698;29;20061;-86
2023/09/04 08:25:11;;;;;;;4.85;3.45;;;;;;;-145.48;100.00;64539.38;5973973;29;20119;-86
2023/09/04 08:28:13;;;;;;;4.65;3.63;;;;;;;-145.48;100.00;64539.38;5976063;29;20083;-86
2023/09/04 08:31:16;;;;;;;4.32;3.65;;;;;;;-145.48;100.00;64539.38;5973012;29;20568;-86
2023/09/04 08:34:17;;;;;;;6.00;3.58;;;;;;;-145.48;100.00;64539.38;5973249;29;20050;-86
2023/09/04 08:37:19;;;;;;;4.35;2.90;;;;;;;-145.48;100.00;64539.38;5972750;29;20071;-86
2023/09/04 08:40:21;;;;;;;3.22;2.90;;;;;;;-145.48;100.00;64539.38;5975966;29;20046;-86
2023/09/04 08:43:26;;;;;;;4.82;2.95;;;;;;;-145.48;100.00;64539.38;5967686;29;20043;-86
2023/09/04 08:46:29;;;;;;;3.63;3.25;;;;;;;-145.48;100.00;64539.38;5985722;29;20042;-86
2023/09/04 08:49:31;;;;;;;4.25;3.05;;;;;;;-145.48;100.00;64539.38;5966416;29;20054;-86
2023/09/04 08:52:38;;;;;;;5.97;3.80;;;;;;;-145.48;100.00;64539.38;5969974;29;20517;-86
2023/09/04 08:55:40;;;;;;;4.43;3.58;;;;;;;-145.48;100.00;64539.38;5963058;29;20051;-86
2023/09/04 08:58:43;;;;;;;5.55;3.80;;;;;;;-145.48;100.00;64539.38;5973209;29;20046;-86
2023/09/04 09:01:46;;;;;;;4.88;3.20;;;;;;;-145.48;100.00;64539.38;5974685;29;20335;-86
2023/09/04 09:04:49;;;;;;;3.40;2.90;;;;;;;-145.48;100.00;64539.38;5976490;29;20050;-87
2023/09/04 09:07:53;;;;;;;5.55;3.03;;;;;;;-145.48;100.00;64539.38;5966422;29;20138;-86
2023/09/04 09:10:55;;;;;;;5.47;2.65;;;;;;;-145.48;100.00;64539.38;5971914;29;20046;-86
2023/09/04 09:13:56;;;;;;;6.38;3.03;;;;;;;-145.48;100.00;64539.38;5967499;29;20565;-86
2023/09/04 09:17:10;;;;;;;4.32;3.55;;;;;;;-145.48;100.00;64539.38;5971460;29;20040;-86
2023/09/04 09:20:12;;;;;;;3.03;2.65;;;;;;;-145.48;100.00;64539.38;5966059;29;20570;-86
2023/09/04 09:23:15;;;;;;;3.75;2.80;;;;;;;-145.48;100.00;64539.38;5971758;29;20053;-86
2023/09/04 09:26:16;;;;;;;6.15;3.83;;;;;;;-145.48;100.00;64539.38;5988038;29;20053;-86
2023/09/04 09:29:18;;;;;;;5.88;3.40;;;;;;;-145.48;100.00;64539.38;5970598;29;20364;-86
2023/09/04 09:32:21;;;;;;;3.95;2.83;;;;;;;-145.48;100.00;64539.38;5976822;29;20042;-88
2023/09/04 09:35:23;;;;;;;4.47;3.33;;;;;;;-145.48;100.00;64539.38;5974386;29;20046;-88
2023/09/04 09:38:25;;;;;;;3.67;2.67;;;;;;;-145.48;100.00;64539.38;5977808;29;20057;-89
2023/09/04 09:41:31;;;;;;;3.40;2.47;;;;;;;-145.48;100.00;64539.38;5981231;29;20066;-89
2023/09/04 09:44:33;;;;;;;2.58;2.30;;;;;;;-145.48;100.00;64539.38;5972102;29;20062;-89
2023/09/04 09:47:35;;;;;;;4.43;3.00;;;;;;;-145.48;100.00;64539.38;5981571;29;20355;-88
2023/09/04 09:50:38;;;;;;;4.18;2.85;;;;;;;-145.48;100.00;64539.38;5972131;29;20058;-89
2023/09/04 09:53:48;;;;;;;3.78;2.58;;;;;;;-145.48;100.00;64539.38;5970718;29;20061;-88
2023/09/04 09:56:50;;;;;;;4.28;2.60;;;;;;;-145.48;100.00;64539.38;5981477;29;20133;-89
2023/09/04 09:59:52;;;;;;;4.50;3.30;;;;;;;-145.48;100.00;64539.38;5966311;29;20561;-89
2023/09/04 10:02:55;;;;;;;3.45;2.78;;;;;;;-145.48;100.00;64539.38;5981687;29;20044;-89
2023/09/04 10:06:02;;;;;;;5.20;3.25;;;;;;;-145.48;100.00;64539.38;5970487;29;20510;-89
2023/09/04 10:09:07;;;;;;;5.45;3.60;;;;;;;-145.48;100.00;64539.38;5971908;29;20050;-89
2023/09/04 10:12:21;;;;;;;3.92;3.53;;;;;;;-145.48;100.00;64539.38;5972714;29;20983;-89
2023/09/04 10:15:25;;;;;;;2.60;2.40;;;;;;;-145.48;100.00;64539.38;5975753;29;20155;-89
2023/09/04 10:18:31;;;;;;;2.70;2.33;;;;;;;-145.48;100.00;64539.38;5970943;29;20158;-89
2023/09/04 10:21:36;;;;;;;4.88;3.40;;;;;;;-145.48;100.00;64539.38;5967662;29;20122;-89
2023/09/04 10:24:49;;;;;;;2.70;2.50;;;;;;;-145.48;100.00;64539.38;5991320;29;20042;-90
2023/09/04 10:28:08;;;;;;;2.92;2.40;;;;;;;-145.48;100.00;64539.38;5985329;29;20057;-89
2023/09/04 10:31:10;;;;;;;3.08;2.33;;;;;;;-145.48;100.00;64539.38;5973950;29;20409;-89
2023/09/04 10:34:12;;;;;;;3.50;2.25;;;;;;;-145.48;100.00;64539.38;5985832;29;20054;-89
2023/09/04 10:37:14;;;;;;;4.00;2.28;;;;;;;-145.48;100.00;64539.38;5974203;29;20195;-89
2023/09/04 10:40:17;;;;;;;4.05;2.10;;;;;;;-145.48;100.00;64539.38;5976913;29;20186;-89
2023/09/04 10:43:19;;;;;;;2.63;2.30;;;;;;;-145.48;100.00;64539.38;5977803;29;20048;-88
2023/09/04 10:46:23;;;;;;;3.83;2.00;;;;;;;-145.48;100.00;64539.38;5975099;29;20053;-89
2023/09/04 10:49:31;;;;;;;2.80;2.17;;;;;;;-145.48;100.00;64539.38;5973567;29;20055;-88
2023/09/04 10:52:43;;;;;;;4.35;1.90;;;;;;;-145.48;100.00;64539.38;5981164;29;20426;-89
2023/09/04 10:56:14;;;;;;;2.10;1.90;;;;;;;-145.48;100.00;64539.38;5973695;29;20043;-89
2023/09/04 10:59:16;;;;;;;2.20;1.80;;;;;;;-145.48;100.00;64539.38;5967192;29;20047;-89
2023/09/04 11:02:36;;;;;;;4.22;1.95;;;;;;;-145.48;100.00;64539.38;5975018;29;20058;-89
2023/09/04 11:06:12;;;;;;;1.92;1.73;;;;;;;-145.48;100.00;64539.38;5975837;29;20046;-89
2023/09/04 11:09:17;;;;;;;1.73;1.60;;;;;;;-145.48;100.00;64539.38;5907491;30;20076;-89
2023/09/04 11:12:23;;;;;;;2.70;2.30;;;;;;;-145.48;100.00;64539.38;5918307;30;20059;-89
2023/09/04 11:15:26;;;;;;;3.15;1.90;;;;;;;-145.48;100.00;64539.38;5913590;30;20139;-89
2023/09/04 11:18:29;;;;;;;3.13;1.50;;;;;;;-145.48;100.00;64539.38;5910860;30;20098;-89
2023/09/04 11:21:38;;;;;;;1.90;1.48;;;;;;;-145.48;100.00;64539.38;5909919;30;20162;-89
2023/09/04 11:24:40;;;;;;;2.20;1.70;;;;;;;-145.48;100.00;64539.38;5891870;30;20152;-89
2023/09/04 11:27:46;;;;;;;3.05;1.95;;;;;;;-145.48;100.00;64539.38;5918633;30;20185;-91
2023/09/04 11:30:51;;;;;;;3.15;1.55;;;;;;;-145.48;100.00;64539.38;5905353;30;20495;-89
2023/09/04 11:33:55;;;;;;;2.15;1.42;;;;;;;-145.48;100.00;64539.38;5907718;30;20060;-89
2023/09/04 11:36:57;;;;;;;1.63;1.52;;;;;;;-145.48;100.00;64539.38;5906281;30;20461;-89
2023/09/04 11:40:00;;;;;;;2.58;1.75;;;;;;;-145.48;100.00;64539.38;5886256;30;20060;-89
2023/09/04 11:43:06;;;;;;;2.10;1.90;;;;;;;-145.48;100.00;64539.38;5892604;30;20315;-89
2023/09/04 11:46:10;;;;;;;2.22;1.60;;;;;;;-145.48;100.00;64539.38;5958992;29;20055;-89
2023/09/04 11:49:12;;;;;;;2.50;1.75;;;;;;;-145.48;100.00;64539.38;5957986;29;20082;-89
2023/09/04 11:52:16;;;;;;;2.67;1.75;;;;;;;-145.48;100.00;64539.38;5971781;29;20046;-89
2023/09/04 11:55:21;;;;;;;3.22;1.67;;;;;;;-145.48;100.00;64539.38;5963458;29;20046;-89
2023/09/04 11:58:23;;;;;;;1.80;1.45;;;;;;;-145.48;100.00;64539.38;5956824;29;20051;-89
2023/09/04 12:01:25;;;;;;;2.88;1.60;;;;;;;-145.48;100.00;64539.38;5965243;29;20053;-89
2023/09/04 12:04:27;;;;;;;2.67;1.77;;;;;;;-145.48;100.00;64539.38;5972598;29;20050;-89
2023/09/04 12:07:29;;;;;;;6.15;2.10;;;;;;;-145.48;100.00;64539.38;5967827;29;20071;-89
2023/09/04 12:10:37;;;;;;;5.88;2.00;;;;;;;-145.48;100.00;64539.38;5963187;29;20043;-89
2023/09/04 12:13:39;;;;;;;1.80;1.70;;;;;;;-145.48;100.00;64539.38;5961907;29;20076;-89
2023/09/04 12:16:44;;;;;;;3.45;1.90;;;;;;;-145.48;100.00;64539.38;5961184;29;20300;-89
2023/09/04 12:19:48;;;;;;;2.35;1.95;;;;;;;-145.48;100.00;64539.38;5964293;29;20050;-89
2023/09/04 12:22:54;;;;;;;2.15;1.95;;;;;;;-145.48;100.00;64539.38;5963984;29;20042;-89
2023/09/04 12:25:57;;;;;;;2.78;1.70;;;;;;;-145.48;100.00;64539.38;5958798;29;20042;-89
2023/09/04 12:29:00;;;;;;;4.05;1.85;;;;;;;-145.48;100.00;64539.38;5961842;29;20050;-89
2023/09/04 12:32:02;;;;;;;1.73;1.63;;;;;;;-145.48;100.00;64539.38;5961616;29;20042;-89
2023/09/04 12:35:06;;;;;;;2.97;1.50;;;;;;;-145.48;100.00;64539.38;5959628;29;20594;-89
2023/09/04 12:38:10;;;;;;;2.05;1.85;;;;;;;-145.48;100.00;64539.38;5957859;29;20097;-89
2023/09/04 12:41:12;;;;;;;2.90;1.90;;;;;;;-145.48;100.00;64539.38;5976359;29;20516;-89
2023/09/04 12:44:14;;;;;;;3.60;1.70;;;;;;;-145.48;100.00;64539.38;5963761;29;20171;-90
2023/09/04 12:47:15;;;;;;;1.85;1.67;;;;;;;-145.48;100.00;64539.38;5975224;29;20095;-89
2023/09/04 12:50:18;;;;;;;2.78;1.67;;;;;;;-145.48;100.00;64539.38;5979144;29;20055;-89
2023/09/04 12:53:20;;;;;;;3.13;1.60;;;;;;;-145.48;100.00;64539.38;5978557;29;20043;-90
2023/09/04 12:56:22;;;;;;;2.97;1.75;;;;;;;-145.48;100.00;64539.38;5976385;29;20046;-89
2023/09/04 12:59:24;;;;;;;2.55;1.70;;;;;;;-145.48;100.00;64539.38;5975111;29;20498;-89
2023/09/04 13:02:26;;;;;;;2.22;1.60;;;;;;;-145.48;100.00;64539.38;5980031;29;20516;-89
2023/09/04 13:05:28;;;;;;;1.80;1.70;;;;;;;-145.48;100.00;64539.38;5979227;29;20536;-90
2023/09/04 13:08:30;;;;;;;2.20;1.50;;;;;;;-145.48;100.00;64539.38;5978535;29;20107;-90
2023/09/04 13:11:33;;;;;;;3.72;1.73;;;;;;;-145.48;100.00;64539.38;5975548;29;20100;-90
2023/09/04 13:14:35;;;;;;;2.55;1.38;;;;;;;-145.48;100.00;64539.38;5985217;29;20054;-89
2023/09/04 13:17:43;;;;;;;1.70;1.60;;;;;;;-145.48;100.00;64539.38;5972692;29;20126;-89
2023/09/04 13:20:45;;;;;;;2.13;1.70;;;;;;;-145.48;100.00;64539.38;5974000;29;20447;-89
2023/09/04 13:23:47;;;;;;;1.88;1.50;;;;;;;-145.48;100.00;64539.38;5974723;29;20042;-89
2023/09/04 13:26:50;;;;;;;1.98;1.77;;;;;;;-145.48;100.00;64539.38;5978617;29;20043;-89
2023/09/04 13:29:52;;;;;;;3.47;1.63;;;;;;;-145.48;100.00;64539.38;5976085;29;20051;-90
2023/09/04 13:32:53;;;;;;;2.63;1.50;;;;;;;-145.48;100.00;64539.38;5976922;29;20042;-89
2023/09/04 13:35:56;;;;;;;2.00;1.80;;;;;;;-145.48;100.00;64539.38;5979272;29;20065;-89
2023/09/04 13:38:58;;;;;;;3.67;1.65;;;;;;;-145.48;100.00;64539.38;5961558;29;20046;-90
2023/09/04 13:42:00;;;;;;;2.92;1.98;;;;;;;-145.48;100.00;64539.38;5967093;29;20191;-90
2023/09/04 13:45:03;;;;;;;2.78;1.83;;;;;;;-145.48;100.00;64539.38;5963749;29;20504;-90
2023/09/04 13:48:05;;;;;;;2.53;1.90;;;;;;;-145.48;100.00;64539.38;5968658;29;20390;-90
2023/09/04 13:51:07;;;;;;;2.95;1.90;;;;;;;-145.48;100.00;64539.38;5963257;29;20522;-89
2023/09/04 13:54:11;;;;;;;2.05;1.60;;;;;;;-145.48;100.00;64539.38;5965378;29;20042;-89